Cookies

¿Aceptas nuestras cookies?

Aceptar
VAM | Vabird-VBD

Virtual Vabird! Aerolínea Virtual de habla hispana, desde 2011




 INFORMACIÓN METAR y TAF
METAR FOR PAVL
ADDS - METARS form results

(0057 UTC 27 September 2021)
Data provider http://aviationweather.gov/metar/data/
 
METAR text: PAVL 270053Z AUTO 33004KT 10SM FEW037 OVC045 01/M02 A2974 RMK AO2 SLP070 T00061017 TSNO
Conditions at: PAVL (KIVALINA , AK, US) observed 0053 UTC 27 September 2021
Temperature: 0.6°C (33°F)
Dewpoint: -1.7°C (29°F) [RH = 85%]
Pressure (altimeter): 29.74 inches Hg (1007.2 mb)
[Sea-level pressure: 1007.0 mb]
Winds: from the NNW (330 degrees) at 5 MPH (4 knots; 2.1 m/s)
Visibility: 10 or more miles (16+ km)
Ceiling: 4500 feet AGL
Clouds: few clouds at 3700 feet AGL
overcast cloud deck at 4500 feet AGL
Weather: automated observation with no human augmentation;
there may or may not be significant weather present at this time

 MAPA DE AEROPUERTO

 INFORMACIÓN DE PISTA